Warning: file_get_contents(/server/czul.ca/includes/../prompts/prompts.aboutus.json): failed to open stream: No such file or directory in /server/czul.ca/includes/prompts.inc.php on line 8

Warning: Invalid argument supplied for foreach() in /server/czul.ca/includes/prompts.inc.php on line 9

Warning: file_get_contents(/server/czul.ca/includes/../prompts/prompts.aboutus.json): failed to open stream: No such file or directory in /server/czul.ca/includes/prompts.inc.php on line 8

Warning: Invalid argument supplied for foreach() in /server/czul.ca/includes/prompts.inc.php on line 9

Warning: file_get_contents(/server/czul.ca/includes/../prompts/prompts.aboutus.json): failed to open stream: No such file or directory in /server/czul.ca/includes/prompts.inc.php on line 8

Warning: Invalid argument supplied for foreach() in /server/czul.ca/includes/prompts.inc.php on line 9
CZUL - FIR virtuelle de Montréal

CYTQ

Tasiujaq Airport

{{ICAO_CODE}} CYTQ
{{IATA_CODE}} YTQ
{{NAME}} Tasiujaq Airport
{{LOCATION}} Tasiujaq, Quebec, CA
{{ELEVATION}} 121 {{FEET}} / 36.9 {{METERS}}
{{LATITUDE}} 58.66777778
{{LONGITUDE}} -69.95583333
{{METAR}} CYTQ 162100Z 10007KT 15SM OVC012 05/02 A2963 RMK SC8 LAST OBS/NEXT 171200UTC SLP039
{{EXTRA_INFO}} {{DISPLAY_NOTAMS}}
{{DISPLAY_CHARTS}}
{{RUNWAY}} {{LENGTH}} {{WIDTH}} {{SURFACE}} {{ELEVATION}}
05 3519 ft 100 ft GRAVEL 121 ft
23 3519 ft 100 ft GRAVEL 103 ft